sensor_id;sensor_type;location;lat;lon;timestamp;P1;durP1;ratioP1;P2;durP2;ratioP2
80776;SDS011;70169;51.262;6.336;2023-06-14T00:00:56;6.47;;;5.03;;
80776;SDS011;70169;51.262;6.336;2023-06-14T00:03:11;6.45;;;4.75;;
80776;SDS011;70169;51.262;6.336;2023-06-14T00:05:26;5.57;;;4.65;;
80776;SDS011;70169;51.262;6.336;2023-06-14T00:07:44;5.97;;;4.80;;
80776;SDS011;70169;51.262;6.336;2023-06-14T00:10:03;5.70;;;4.65;;
80776;SDS011;70169;51.262;6.336;2023-06-14T00:12:19;6.88;;;4.80;;
80776;SDS011;70169;51.262;6.336;2023-06-14T00:14:34;7.47;;;5.03;;
80776;SDS011;70169;51.262;6.336;2023-06-14T00:16:50;8.23;;;5.27;;
80776;SDS011;70169;51.262;6.336;2023-06-14T00:19:08;6.00;;;4.63;;
80776;SDS011;70169;51.262;6.336;2023-06-14T00:21:25;6.97;;;4.85;;
80776;SDS011;70169;51.262;6.336;2023-06-14T00:23:43;6.43;;;5.00;;
80776;SDS011;70169;51.262;6.336;2023-06-14T00:25:58;6.43;;;4.93;;
80776;SDS011;70169;51.262;6.336;2023-06-14T00:28:14;7.53;;;5.22;;
80776;SDS011;70169;51.262;6.336;2023-06-14T00:30:30;6.85;;;5.45;;
80776;SDS011;70169;51.262;6.336;2023-06-14T00:32:45;7.03;;;5.80;;
80776;SDS011;70169;51.262;6.336;2023-06-14T00:35:01;5.82;;;4.85;;
80776;SDS011;70169;51.262;6.336;2023-06-14T00:37:17;8.05;;;5.50;;
80776;SDS011;70169;51.262;6.336;2023-06-14T00:39:32;6.47;;;4.80;;
80776;SDS011;70169;51.262;6.336;2023-06-14T00:41:47;8.70;;;5.63;;
80776;SDS011;70169;51.262;6.336;2023-06-14T00:44:02;7.00;;;5.07;;
80776;SDS011;70169;51.262;6.336;2023-06-14T00:46:18;7.32;;;5.53;;
80776;SDS011;70169;51.262;6.336;2023-06-14T00:48:34;5.85;;;4.53;;
80776;SDS011;70169;51.262;6.336;2023-06-14T00:50:52;5.82;;;4.53;;
80776;SDS011;70169;51.262;6.336;2023-06-14T00:53:07;7.78;;;5.50;;
80776;SDS011;70169;51.262;6.336;2023-06-14T00:55:23;6.10;;;4.90;;
80776;SDS011;70169;51.262;6.336;2023-06-14T00:57:38;7.70;;;5.13;;
80776;SDS011;70169;51.262;6.336;2023-06-14T00:59:55;6.32;;;4.57;;
80776;SDS011;70169;51.262;6.336;2023-06-14T01:02:11;5.57;;;4.40;;
80776;SDS011;70169;51.262;6.336;2023-06-14T01:04:26;5.65;;;4.75;;
80776;SDS011;70169;51.262;6.336;2023-06-14T01:09:23;7.47;;;4.90;;
80776;SDS011;70169;51.262;6.336;2023-06-14T01:12:07;5.88;;;4.57;;
80776;SDS011;70169;51.262;6.336;2023-06-14T01:14:44;7.40;;;4.60;;
80776;SDS011;70169;51.262;6.336;2023-06-14T01:17:02;5.43;;;4.25;;
80776;SDS011;70169;51.262;6.336;2023-06-14T01:19:19;7.03;;;5.00;;
80776;SDS011;70169;51.262;6.336;2023-06-14T01:21:37;7.07;;;4.70;;
80776;SDS011;70169;51.262;6.336;2023-06-14T01:23:56;5.72;;;4.45;;
80776;SDS011;70169;51.262;6.336;2023-06-14T01:26:12;6.10;;;4.83;;
80776;SDS011;70169;51.262;6.336;2023-06-14T01:28:27;6.95;;;4.57;;
80776;SDS011;70169;51.262;6.336;2023-06-14T01:30:51;6.18;;;4.45;;
80776;SDS011;70169;51.262;6.336;2023-06-14T01:33:08;5.82;;;4.72;;
80776;SDS011;70169;51.262;6.336;2023-06-14T01:35:24;7.03;;;4.90;;
80776;SDS011;70169;51.262;6.336;2023-06-14T01:37:39;6.10;;;4.57;;
80776;SDS011;70169;51.262;6.336;2023-06-14T01:39:56;6.32;;;4.90;;
80776;SDS011;70169;51.262;6.336;2023-06-14T01:42:12;5.45;;;4.68;;
80776;SDS011;70169;51.262;6.336;2023-06-14T01:44:29;5.70;;;4.60;;
80776;SDS011;70169;51.262;6.336;2023-06-14T01:46:45;6.60;;;4.90;;
80776;SDS011;70169;51.262;6.336;2023-06-14T01:49:01;6.60;;;5.00;;
80776;SDS011;70169;51.262;6.336;2023-06-14T01:51:17;6.45;;;4.93;;
80776;SDS011;70169;51.262;6.336;2023-06-14T01:53:32;5.87;;;4.50;;
80776;SDS011;70169;51.262;6.336;2023-06-14T01:55:47;6.37;;;4.67;;
80776;SDS011;70169;51.262;6.336;2023-06-14T01:58:04;8.38;;;5.53;;
80776;SDS011;70169;51.262;6.336;2023-06-14T02:00:20;7.45;;;5.30;;
80776;SDS011;70169;51.262;6.336;2023-06-14T02:02:36;7.63;;;6.15;;
80776;SDS011;70169;51.262;6.336;2023-06-14T02:04:51;7.07;;;5.65;;
80776;SDS011;70169;51.262;6.336;2023-06-14T02:07:07;8.95;;;6.22;;
80776;SDS011;70169;51.262;6.336;2023-06-14T02:09:23;7.30;;;5.60;;
80776;SDS011;70169;51.262;6.336;2023-06-14T02:11:38;8.73;;;5.57;;
80776;SDS011;70169;51.262;6.336;2023-06-14T02:13:54;6.30;;;5.33;;
80776;SDS011;70169;51.262;6.336;2023-06-14T02:16:10;9.38;;;5.78;;
80776;SDS011;70169;51.262;6.336;2023-06-14T02:18:25;9.17;;;6.07;;
80776;SDS011;70169;51.262;6.336;2023-06-14T02:20:41;5.95;;;4.75;;
80776;SDS011;70169;51.262;6.336;2023-06-14T02:22:56;6.60;;;5.10;;
80776;SDS011;70169;51.262;6.336;2023-06-14T02:25:12;6.00;;;4.30;;
80776;SDS011;70169;51.262;6.336;2023-06-14T02:27:27;7.28;;;5.20;;
80776;SDS011;70169;51.262;6.336;2023-06-14T02:29:43;7.40;;;5.10;;
80776;SDS011;70169;51.262;6.336;2023-06-14T02:31:58;6.73;;;5.50;;
80776;SDS011;70169;51.262;6.336;2023-06-14T02:34:13;7.07;;;5.33;;
80776;SDS011;70169;51.262;6.336;2023-06-14T02:36:31;9.43;;;5.70;;
80776;SDS011;70169;51.262;6.336;2023-06-14T02:38:46;7.43;;;5.50;;
80776;SDS011;70169;51.262;6.336;2023-06-14T02:41:02;6.72;;;5.30;;
80776;SDS011;70169;51.262;6.336;2023-06-14T02:43:19;6.90;;;5.45;;
80776;SDS011;70169;51.262;6.336;2023-06-14T02:45:34;6.45;;;5.32;;
80776;SDS011;70169;51.262;6.336;2023-06-14T02:47:50;7.97;;;5.57;;
80776;SDS011;70169;51.262;6.336;2023-06-14T02:50:06;6.97;;;5.30;;
80776;SDS011;70169;51.262;6.336;2023-06-14T02:52:22;6.30;;;5.15;;
80776;SDS011;70169;51.262;6.336;2023-06-14T02:54:40;7.30;;;5.50;;
80776;SDS011;70169;51.262;6.336;2023-06-14T02:56:55;6.93;;;5.27;;
80776;SDS011;70169;51.262;6.336;2023-06-14T02:59:10;6.93;;;5.80;;
80776;SDS011;70169;51.262;6.336;2023-06-14T03:01:26;6.90;;;4.90;;
80776;SDS011;70169;51.262;6.336;2023-06-14T03:03:48;6.10;;;4.88;;
80776;SDS011;70169;51.262;6.336;2023-06-14T03:06:04;7.47;;;5.43;;
80776;SDS011;70169;51.262;6.336;2023-06-14T03:08:20;6.35;;;5.20;;
80776;SDS011;70169;51.262;6.336;2023-06-14T03:10:35;7.13;;;5.32;;
80776;SDS011;70169;51.262;6.336;2023-06-14T03:12:50;7.40;;;5.70;;
80776;SDS011;70169;51.262;6.336;2023-06-14T03:15:07;7.05;;;5.35;;
80776;SDS011;70169;51.262;6.336;2023-06-14T03:17:24;7.18;;;5.05;;
80776;SDS011;70169;51.262;6.336;2023-06-14T03:19:40;6.63;;;5.57;;
80776;SDS011;70169;51.262;6.336;2023-06-14T03:21:56;6.72;;;5.38;;
80776;SDS011;70169;51.262;6.336;2023-06-14T03:24:14;7.90;;;5.55;;
80776;SDS011;70169;51.262;6.336;2023-06-14T03:26:31;6.95;;;6.00;;
80776;SDS011;70169;51.262;6.336;2023-06-14T03:28:49;6.20;;;4.57;;
80776;SDS011;70169;51.262;6.336;2023-06-14T03:31:05;6.38;;;5.05;;
80776;SDS011;70169;51.262;6.336;2023-06-14T03:33:20;5.80;;;4.78;;
80776;SDS011;70169;51.262;6.336;2023-06-14T03:35:35;6.80;;;4.75;;
80776;SDS011;70169;51.262;6.336;2023-06-14T03:37:51;6.37;;;5.00;;
80776;SDS011;70169;51.262;6.336;2023-06-14T03:40:06;8.00;;;5.30;;
80776;SDS011;70169;51.262;6.336;2023-06-14T03:42:22;7.18;;;5.45;;
80776;SDS011;70169;51.262;6.336;2023-06-14T03:44:37;6.53;;;5.00;;
80776;SDS011;70169;51.262;6.336;2023-06-14T03:46:53;7.82;;;5.85;;
80776;SDS011;70169;51.262;6.336;2023-06-14T03:49:08;8.43;;;5.97;;
80776;SDS011;70169;51.262;6.336;2023-06-14T03:51:24;7.35;;;5.38;;
80776;SDS011;70169;51.262;6.336;2023-06-14T03:53:40;7.20;;;5.38;;
80776;SDS011;70169;51.262;6.336;2023-06-14T03:55:55;6.93;;;5.33;;
80776;SDS011;70169;51.262;6.336;2023-06-14T03:58:12;8.68;;;5.07;;
80776;SDS011;70169;51.262;6.336;2023-06-14T04:00:28;7.97;;;5.70;;
80776;SDS011;70169;51.262;6.336;2023-06-14T04:02:43;6.90;;;5.37;;
80776;SDS011;70169;51.262;6.336;2023-06-14T04:05:02;7.75;;;5.40;;
80776;SDS011;70169;51.262;6.336;2023-06-14T04:07:17;6.32;;;4.75;;
80776;SDS011;70169;51.262;6.336;2023-06-14T04:09:36;6.03;;;4.57;;
80776;SDS011;70169;51.262;6.336;2023-06-14T04:11:54;7.40;;;5.13;;
80776;SDS011;70169;51.262;6.336;2023-06-14T04:14:21;8.70;;;5.65;;
80776;SDS011;70169;51.262;6.336;2023-06-14T04:16:43;6.28;;;4.85;;
80776;SDS011;70169;51.262;6.336;2023-06-14T04:18:59;6.25;;;4.70;;
80776;SDS011;70169;51.262;6.336;2023-06-14T04:21:17;8.30;;;5.17;;
80776;SDS011;70169;51.262;6.336;2023-06-14T04:23:36;7.40;;;4.95;;
80776;SDS011;70169;51.262;6.336;2023-06-14T04:25:53;6.15;;;4.60;;
80776;SDS011;70169;51.262;6.336;2023-06-14T04:28:08;8.55;;;4.75;;
80776;SDS011;70169;51.262;6.336;2023-06-14T04:30:24;7.95;;;5.28;;
80776;SDS011;70169;51.262;6.336;2023-06-14T04:32:43;7.07;;;4.68;;
80776;SDS011;70169;51.262;6.336;2023-06-14T04:35:00;6.93;;;4.65;;
80776;SDS011;70169;51.262;6.336;2023-06-14T04:37:19;7.32;;;5.45;;
80776;SDS011;70169;51.262;6.336;2023-06-14T04:39:36;6.30;;;4.65;;
80776;SDS011;70169;51.262;6.336;2023-06-14T04:41:51;7.43;;;5.47;;
80776;SDS011;70169;51.262;6.336;2023-06-14T04:44:07;9.13;;;5.57;;
80776;SDS011;70169;51.262;6.336;2023-06-14T04:46:22;7.77;;;5.80;;
80776;SDS011;70169;51.262;6.336;2023-06-14T04:50:56;7.55;;;4.63;;
80776;SDS011;70169;51.262;6.336;2023-06-14T04:53:14;7.07;;;5.13;;
80776;SDS011;70169;51.262;6.336;2023-06-14T04:55:30;7.25;;;4.90;;
80776;SDS011;70169;51.262;6.336;2023-06-14T04:57:46;6.65;;;5.38;;
80776;SDS011;70169;51.262;6.336;2023-06-14T05:00:02;7.35;;;5.13;;
80776;SDS011;70169;51.262;6.336;2023-06-14T05:04:40;9.80;;;4.97;;
80776;SDS011;70169;51.262;6.336;2023-06-14T05:06:56;7.60;;;5.33;;
80776;SDS011;70169;51.262;6.336;2023-06-14T05:09:11;8.80;;;6.32;;
80776;SDS011;70169;51.262;6.336;2023-06-14T05:11:28;12.05;;;5.40;;
80776;SDS011;70169;51.262;6.336;2023-06-14T05:13:43;7.80;;;5.50;;
80776;SDS011;70169;51.262;6.336;2023-06-14T05:15:59;7.88;;;5.55;;
80776;SDS011;70169;51.262;6.336;2023-06-14T05:18:15;10.65;;;6.07;;
80776;SDS011;70169;51.262;6.336;2023-06-14T05:20:31;8.18;;;5.95;;
80776;SDS011;70169;51.262;6.336;2023-06-14T05:22:46;7.23;;;5.90;;
80776;SDS011;70169;51.262;6.336;2023-06-14T05:25:02;8.40;;;6.20;;
80776;SDS011;70169;51.262;6.336;2023-06-14T05:27:18;6.97;;;5.15;;
80776;SDS011;70169;51.262;6.336;2023-06-14T05:32:01;7.43;;;5.20;;
80776;SDS011;70169;51.262;6.336;2023-06-14T05:39:08;7.95;;;5.03;;
80776;SDS011;70169;51.262;6.336;2023-06-14T05:41:27;6.93;;;5.40;;
80776;SDS011;70169;51.262;6.336;2023-06-14T05:43:43;9.73;;;5.40;;
80776;SDS011;70169;51.262;6.336;2023-06-14T05:45:58;8.17;;;5.30;;
80776;SDS011;70169;51.262;6.336;2023-06-14T05:48:13;9.35;;;6.05;;
80776;SDS011;70169;51.262;6.336;2023-06-14T05:50:29;7.43;;;4.97;;
80776;SDS011;70169;51.262;6.336;2023-06-14T05:52:45;8.02;;;5.20;;
80776;SDS011;70169;51.262;6.336;2023-06-14T05:55:00;6.90;;;4.97;;
80776;SDS011;70169;51.262;6.336;2023-06-14T05:57:16;6.93;;;4.80;;
80776;SDS011;70169;51.262;6.336;2023-06-14T05:59:31;6.90;;;4.40;;
80776;SDS011;70169;51.262;6.336;2023-06-14T06:01:47;5.43;;;4.17;;
80776;SDS011;70169;51.262;6.336;2023-06-14T06:04:03;6.22;;;3.92;;
80776;SDS011;70169;51.262;6.336;2023-06-14T06:06:18;6.13;;;3.90;;
80776;SDS011;70169;51.262;6.336;2023-06-14T06:08:34;8.57;;;4.33;;
80776;SDS011;70169;51.262;6.336;2023-06-14T06:10:50;5.82;;;4.13;;
80776;SDS011;70169;51.262;6.336;2023-06-14T06:16:23;5.57;;;3.72;;
80776;SDS011;70169;51.262;6.336;2023-06-14T06:18:46;7.07;;;4.30;;
80776;SDS011;70169;51.262;6.336;2023-06-14T06:21:03;6.10;;;3.95;;
80776;SDS011;70169;51.262;6.336;2023-06-14T06:23:19;6.28;;;3.95;;
80776;SDS011;70169;51.262;6.336;2023-06-14T06:25:34;5.93;;;4.22;;
80776;SDS011;70169;51.262;6.336;2023-06-14T06:27:49;6.53;;;4.10;;
80776;SDS011;70169;51.262;6.336;2023-06-14T06:30:06;5.57;;;3.83;;
80776;SDS011;70169;51.262;6.336;2023-06-14T06:34:50;6.80;;;4.80;;
80776;SDS011;70169;51.262;6.336;2023-06-14T06:37:05;6.68;;;4.22;;
80776;SDS011;70169;51.262;6.336;2023-06-14T06:39:21;6.53;;;4.43;;
80776;SDS011;70169;51.262;6.336;2023-06-14T06:41:44;6.15;;;3.90;;
80776;SDS011;70169;51.262;6.336;2023-06-14T06:44:00;6.70;;;4.22;;
80776;SDS011;70169;51.262;6.336;2023-06-14T06:46:15;6.40;;;4.65;;
80776;SDS011;70169;51.262;6.336;2023-06-14T06:48:32;5.90;;;4.30;;
80776;SDS011;70169;51.262;6.336;2023-06-14T06:50:48;5.78;;;4.25;;
80776;SDS011;70169;51.262;6.336;2023-06-14T06:55:22;5.25;;;4.22;;
80776;SDS011;70169;51.262;6.336;2023-06-14T06:57:37;6.50;;;4.07;;
80776;SDS011;70169;51.262;6.336;2023-06-14T06:59:52;6.97;;;4.37;;
80776;SDS011;70169;51.262;6.336;2023-06-14T07:02:07;6.73;;;4.23;;
80776;SDS011;70169;51.262;6.336;2023-06-14T07:04:26;6.23;;;4.20;;
80776;SDS011;70169;51.262;6.336;2023-06-14T07:06:42;8.73;;;4.53;;
80776;SDS011;70169;51.262;6.336;2023-06-14T07:08:57;5.00;;;3.90;;
80776;SDS011;70169;51.262;6.336;2023-06-14T07:11:16;6.38;;;4.13;;
80776;SDS011;70169;51.262;6.336;2023-06-14T07:13:31;5.50;;;3.80;;
80776;SDS011;70169;51.262;6.336;2023-06-14T07:15:47;5.30;;;3.53;;
80776;SDS011;70169;51.262;6.336;2023-06-14T07:18:31;5.93;;;3.55;;
80776;SDS011;70169;51.262;6.336;2023-06-14T07:20:47;7.78;;;4.00;;
80776;SDS011;70169;51.262;6.336;2023-06-14T07:23:02;6.40;;;3.72;;
80776;SDS011;70169;51.262;6.336;2023-06-14T07:25:17;6.93;;;3.57;;
80776;SDS011;70169;51.262;6.336;2023-06-14T07:27:35;7.25;;;4.43;;
80776;SDS011;70169;51.262;6.336;2023-06-14T07:29:50;7.57;;;3.67;;
80776;SDS011;70169;51.262;6.336;2023-06-14T07:32:06;6.57;;;3.90;;
80776;SDS011;70169;51.262;6.336;2023-06-14T07:34:30;5.20;;;4.10;;
80776;SDS011;70169;51.262;6.336;2023-06-14T07:39:04;5.13;;;3.42;;
80776;SDS011;70169;51.262;6.336;2023-06-14T07:41:21;4.60;;;3.00;;
80776;SDS011;70169;51.262;6.336;2023-06-14T07:43:36;6.50;;;3.47;;
80776;SDS011;70169;51.262;6.336;2023-06-14T07:45:52;3.97;;;2.73;;
80776;SDS011;70169;51.262;6.336;2023-06-14T07:48:10;5.13;;;2.85;;
80776;SDS011;70169;51.262;6.336;2023-06-14T07:51:20;4.50;;;2.85;;
80776;SDS011;70169;51.262;6.336;2023-06-14T08:01:00;5.53;;;2.50;;
80776;SDS011;70169;51.262;6.336;2023-06-14T08:06:33;3.28;;;2.10;;
80776;SDS011;70169;51.262;6.336;2023-06-14T08:08:49;3.63;;;2.20;;
80776;SDS011;70169;51.262;6.336;2023-06-14T08:11:05;3.05;;;2.00;;
80776;SDS011;70169;51.262;6.336;2023-06-14T08:13:20;4.22;;;2.05;;
80776;SDS011;70169;51.262;6.336;2023-06-14T08:18:48;8.27;;;1.98;;
80776;SDS011;70169;51.262;6.336;2023-06-14T08:21:03;3.58;;;1.70;;
80776;SDS011;70169;51.262;6.336;2023-06-14T08:23:57;3.05;;;1.80;;
80776;SDS011;70169;51.262;6.336;2023-06-14T08:26:16;3.93;;;1.87;;
80776;SDS011;70169;51.262;6.336;2023-06-14T08:29:35;3.15;;;1.60;;
80776;SDS011;70169;51.262;6.336;2023-06-14T08:32:29;4.55;;;1.92;;
80776;SDS011;70169;51.262;6.336;2023-06-14T08:35:55;3.60;;;1.90;;
80776;SDS011;70169;51.262;6.336;2023-06-14T08:41:57;3.53;;;1.63;;
80776;SDS011;70169;51.262;6.336;2023-06-14T08:45:11;3.65;;;1.83;;
80776;SDS011;70169;51.262;6.336;2023-06-14T08:51:35;3.20;;;1.70;;
80776;SDS011;70169;51.262;6.336;2023-06-14T08:53:56;4.10;;;1.67;;
80776;SDS011;70169;51.262;6.336;2023-06-14T09:00:16;2.47;;;1.48;;
80776;SDS011;70169;51.262;6.336;2023-06-14T09:06:28;3.25;;;1.40;;
80776;SDS011;70169;51.262;6.336;2023-06-14T09:09:04;2.35;;;1.30;;
80776;SDS011;70169;51.262;6.336;2023-06-14T09:11:45;5.60;;;1.80;;
80776;SDS011;70169;51.262;6.336;2023-06-14T09:14:15;2.90;;;1.90;;
80776;SDS011;70169;51.262;6.336;2023-06-14T09:16:32;4.47;;;1.67;;
80776;SDS011;70169;51.262;6.336;2023-06-14T15:47:00;3.20;;;2.17;;
80776;SDS011;70169;51.262;6.336;2023-06-14T15:49:15;3.23;;;2.03;;
80776;SDS011;70169;51.262;6.336;2023-06-14T15:51:30;5.20;;;2.10;;
80776;SDS011;70169;51.262;6.336;2023-06-14T15:53:46;4.27;;;2.23;;
80776;SDS011;70169;51.262;6.336;2023-06-14T15:56:01;5.80;;;2.17;;
80776;SDS011;70169;51.262;6.336;2023-06-14T15:58:16;9.40;;;2.43;;
80776;SDS011;70169;51.262;6.336;2023-06-14T16:00:32;3.13;;;2.28;;
80776;SDS011;70169;51.262;6.336;2023-06-14T16:02:47;4.87;;;2.33;;
80776;SDS011;70169;51.262;6.336;2023-06-14T16:05:04;4.00;;;2.38;;
80776;SDS011;70169;51.262;6.336;2023-06-14T16:07:20;2.83;;;2.03;;
80776;SDS011;70169;51.262;6.336;2023-06-14T16:16:14;3.80;;;2.42;;
80776;SDS011;70169;51.262;6.336;2023-06-14T22:39:07;2.75;;;1.83;;
80776;SDS011;70169;51.262;6.336;2023-06-14T22:41:26;2.50;;;1.60;;
80776;SDS011;70169;51.262;6.336;2023-06-14T22:43:46;2.80;;;1.60;;
80776;SDS011;70169;51.262;6.336;2023-06-14T22:46:05;2.42;;;1.60;;
80776;SDS011;70169;51.262;6.336;2023-06-14T22:48:37;3.42;;;1.95;;
80776;SDS011;70169;51.262;6.336;2023-06-14T22:51:09;2.92;;;1.65;;
80776;SDS011;70169;51.262;6.336;2023-06-14T22:53:31;3.38;;;1.88;;
80776;SDS011;70169;51.262;6.336;2023-06-14T22:55:55;3.00;;;1.95;;
80776;SDS011;70169;51.262;6.336;2023-06-14T22:58:10;3.10;;;1.98;;
80776;SDS011;70169;51.262;6.336;2023-06-14T23:00:29;2.90;;;1.90;;
80776;SDS011;70169;51.262;6.336;2023-06-14T23:05:16;2.40;;;1.70;;
80776;SDS011;70169;51.262;6.336;2023-06-14T23:07:32;3.63;;;2.13;;
80776;SDS011;70169;51.262;6.336;2023-06-14T23:09:52;3.55;;;2.10;;
80776;SDS011;70169;51.262;6.336;2023-06-14T23:12:11;3.40;;;2.00;;
80776;SDS011;70169;51.262;6.336;2023-06-14T23:14:26;3.13;;;1.90;;
80776;SDS011;70169;51.262;6.336;2023-06-14T23:16:42;3.03;;;1.87;;
80776;SDS011;70169;51.262;6.336;2023-06-14T23:19:00;3.15;;;1.98;;
80776;SDS011;70169;51.262;6.336;2023-06-14T23:21:18;3.10;;;1.90;;
80776;SDS011;70169;51.262;6.336;2023-06-14T23:23:37;3.38;;;2.10;;
80776;SDS011;70169;51.262;6.336;2023-06-14T23:25:54;2.63;;;1.77;;
80776;SDS011;70169;51.262;6.336;2023-06-14T23:28:09;2.63;;;1.80;;
80776;SDS011;70169;51.262;6.336;2023-06-14T23:30:25;2.80;;;2.00;;
80776;SDS011;70169;51.262;6.336;2023-06-14T23:32:42;3.08;;;2.08;;
80776;SDS011;70169;51.262;6.336;2023-06-14T23:35:00;3.17;;;2.08;;
80776;SDS011;70169;51.262;6.336;2023-06-14T23:37:25;3.38;;;1.98;;
80776;SDS011;70169;51.262;6.336;2023-06-14T23:39:40;3.10;;;2.07;;
80776;SDS011;70169;51.262;6.336;2023-06-14T23:42:03;3.03;;;1.90;;
80776;SDS011;70169;51.262;6.336;2023-06-14T23:44:21;3.30;;;2.10;;
80776;SDS011;70169;51.262;6.336;2023-06-14T23:46:39;3.28;;;2.20;;
80776;SDS011;70169;51.262;6.336;2023-06-14T23:51:23;3.05;;;2.13;;
80776;SDS011;70169;51.262;6.336;2023-06-14T23:53:39;2.70;;;1.80;;
80776;SDS011;70169;51.262;6.336;2023-06-14T23:55:54;3.10;;;1.92;;
80776;SDS011;70169;51.262;6.336;2023-06-14T23:58:11;3.00;;;1.88;;
